Time;durP1;ratioP1;P1;durP2;ratioP2;P2;SDS_P1;SDS_P2;PMS_P1;PMS_P2;Temp;Humidity;BMP_temperature;BMP_pressure;BME280_temperature;BME280_humidity;BME280_pressure;Samples;Min_cycle;Max_cycle;Signal;HPM_P1;HPM_P2
2022/06/06 00:00:10;;;;;;;0.30;0.20;;;15.00;99.90;;;;;;4979731;28;20474;-86
2022/06/06 00:02:37;;;;;;;0.30;0.20;;;15.10;99.90;;;;;;4979901;28;20462;-87
2022/06/06 00:05:06;;;;;;;0.30;0.20;;;15.10;99.90;;;;;;4980179;28;20478;-86
2022/06/06 00:07:33;;;;;;;0.30;0.20;;;15.00;99.90;;;;;;4981916;28;20524;-87
2022/06/06 00:10:00;;;;;;;0.30;0.20;;;15.00;99.90;;;;;;4976583;28;21186;-87
2022/06/06 00:12:27;;;;;;;0.30;0.20;;;15.00;99.90;;;;;;4977422;28;20471;-87
2022/06/06 00:14:54;;;;;;;0.30;0.20;;;15.00;99.90;;;;;;4976834;28;20483;-87
2022/06/06 00:17:21;;;;;;;0.30;0.20;;;15.00;99.90;;;;;;4979309;28;20461;-86
2022/06/06 00:19:49;;;;;;;0.30;0.20;;;14.90;99.90;;;;;;4978570;28;22043;-87
2022/06/06 00:22:17;;;;;;;0.73;0.73;;;14.90;99.90;;;;;;4976606;28;20539;-88
2022/06/06 00:24:44;;;;;;;0.30;0.20;;;15.00;99.90;;;;;;4980605;28;20469;-87
2022/06/06 00:27:11;;;;;;;0.30;0.20;;;15.10;99.90;;;;;;4969285;28;20469;-88
2022/06/06 00:29:38;;;;;;;0.30;0.20;;;15.10;99.90;;;;;;4977181;28;21017;-87
2022/06/06 00:34:52;;;;;;;0.30;0.20;;;15.20;99.90;;;;;;4979035;28;20835;-88
2022/06/06 00:37:24;;;;;;;0.30;0.20;;;15.10;99.90;;;;;;4978911;28;20462;-87
2022/06/06 00:39:52;;;;;;;0.30;0.20;;;15.10;99.90;;;;;;4980805;28;20463;-87
2022/06/06 00:42:25;;;;;;;0.30;0.20;;;15.20;99.90;;;;;;4978388;28;20468;-87
2022/06/06 00:45:24;;;;;;;0.30;0.20;;;15.20;99.90;;;;;;4982495;28;20475;-87
2022/06/06 00:47:55;;;;;;;0.30;0.20;;;15.30;99.90;;;;;;4999252;28;20557;-87
2022/06/06 00:50:26;;;;;;;0.30;0.20;;;15.30;99.90;;;;;;4982891;28;20448;-88
2022/06/06 00:52:56;;;;;;;0.30;0.20;;;15.40;99.90;;;;;;4981550;28;20644;-88
2022/06/06 00:55:27;;;;;;;0.30;0.20;;;15.40;99.90;;;;;;4980935;28;21170;-87
2022/06/06 00:57:59;;;;;;;0.30;0.20;;;15.40;99.90;;;;;;4978726;28;20494;-87
2022/06/06 01:00:27;;;;;;;0.30;0.20;;;15.30;99.90;;;;;;4978000;28;20460;-87
2022/06/06 01:02:57;;;;;;;0.30;0.20;;;15.40;99.90;;;;;;4977022;28;20467;-87
2022/06/06 01:05:27;;;;;;;0.30;0.20;;;15.50;99.90;;;;;;4979292;28;20525;-88
2022/06/06 01:07:56;;;;;;;0.30;0.20;;;15.50;99.90;;;;;;4976837;28;20534;-87
2022/06/06 01:10:23;;;;;;;0.30;0.20;;;15.50;99.90;;;;;;4972195;28;20528;-87
2022/06/06 01:12:53;;;;;;;0.30;0.20;;;15.40;99.90;;;;;;4981136;28;20513;-87
2022/06/06 01:15:23;;;;;;;0.30;0.20;;;15.30;99.90;;;;;;4978885;28;20484;-88
2022/06/06 01:18:05;;;;;;;0.30;0.20;;;15.30;99.90;;;;;;4976884;28;21107;-87
2022/06/06 01:20:57;;;;;;;0.30;0.20;;;15.40;99.90;;;;;;4979640;28;20542;-88
2022/06/06 01:23:49;;;;;;;0.30;0.20;;;15.30;99.90;;;;;;4979605;28;20479;-87
2022/06/06 01:26:44;;;;;;;0.30;0.20;;;15.40;99.90;;;;;;4975764;28;20472;-87
2022/06/06 01:29:16;;;;;;;0.30;0.20;;;15.40;99.90;;;;;;4977874;28;20485;-87
2022/06/06 01:31:48;;;;;;;0.30;0.20;;;15.40;99.90;;;;;;4978933;28;20467;-87
2022/06/06 01:34:23;;;;;;;0.30;0.20;;;15.40;99.90;;;;;;4977028;28;20468;-87
2022/06/06 01:36:52;;;;;;;0.30;0.20;;;15.40;99.90;;;;;;4976445;28;20466;-87
2022/06/06 01:39:21;;;;;;;0.30;0.20;;;15.40;99.90;;;;;;4981411;28;20516;-87
2022/06/06 01:41:58;;;;;;;0.30;0.20;;;15.30;99.90;;;;;;4979226;28;20532;-87
2022/06/06 01:44:34;;;;;;;0.30;0.20;;;15.40;99.90;;;;;;4979916;28;20981;-87
2022/06/06 01:47:04;;;;;;;0.30;0.20;;;15.50;99.90;;;;;;4976553;28;20953;-86
2022/06/06 01:49:34;;;;;;;0.30;0.10;;;15.60;99.90;;;;;;4979912;28;20615;-87
2022/06/06 01:52:05;;;;;;;0.30;0.20;;;15.60;99.90;;;;;;4976187;28;21079;-87
2022/06/06 01:54:32;;;;;;;0.30;0.20;;;15.60;99.90;;;;;;4979667;28;20515;-86
2022/06/06 01:57:01;;;;;;;0.30;0.20;;;15.70;99.90;;;;;;4980823;28;20543;-87
2022/06/06 01:59:30;;;;;;;0.30;0.20;;;15.70;99.90;;;;;;4975683;28;20467;-87
2022/06/06 02:01:57;;;;;;;0.30;0.20;;;15.70;99.90;;;;;;4978261;28;20514;-87
2022/06/06 02:04:24;;;;;;;0.30;0.20;;;15.80;99.90;;;;;;4978035;28;20635;-87
2022/06/06 02:06:52;;;;;;;0.30;0.20;;;15.70;99.90;;;;;;4978642;28;20455;-87
2022/06/06 02:09:19;;;;;;;0.30;0.20;;;15.70;99.90;;;;;;4981245;28;20496;-87
2022/06/06 02:11:46;;;;;;;0.30;0.20;;;15.60;99.90;;;;;;4976695;28;20490;-87
2022/06/06 02:14:13;;;;;;;0.30;0.20;;;15.60;99.90;;;;;;4983240;28;20439;-87
2022/06/06 02:16:42;;;;;;;0.30;0.20;;;15.60;99.90;;;;;;4981859;28;20975;-87
2022/06/06 02:19:11;;;;;;;0.30;0.20;;;15.50;99.90;;;;;;4978289;28;20477;-86
2022/06/06 02:21:38;;;;;;;0.30;0.20;;;15.50;99.90;;;;;;4980256;28;20538;-87
2022/06/06 02:24:06;;;;;;;0.30;0.20;;;15.50;99.90;;;;;;4983796;28;20497;-87
2022/06/06 02:26:34;;;;;;;0.30;0.20;;;15.40;99.90;;;;;;4979694;28;20545;-87
2022/06/06 02:29:02;;;;;;;0.30;0.20;;;15.50;99.90;;;;;;4980970;28;20500;-87
2022/06/06 02:31:29;;;;;;;0.30;0.20;;;15.50;99.90;;;;;;4981175;28;20550;-87
2022/06/06 02:33:57;;;;;;;0.30;0.20;;;15.40;99.90;;;;;;4981742;28;20486;-88
2022/06/06 02:36:24;;;;;;;0.30;0.20;;;15.50;99.90;;;;;;4980536;28;20470;-88
2022/06/06 02:38:51;;;;;;;0.30;0.20;;;15.50;99.90;;;;;;4979814;28;20472;-88
2022/06/06 02:41:18;;;;;;;0.30;0.20;;;15.50;99.90;;;;;;4978871;28;20497;-87
2022/06/06 02:43:45;;;;;;;0.30;0.20;;;15.50;99.90;;;;;;4977886;28;20923;-88
2022/06/06 02:46:14;;;;;;;0.30;0.20;;;15.60;99.90;;;;;;4987525;28;21035;-87
2022/06/06 02:48:41;;;;;;;0.30;0.20;;;15.60;99.90;;;;;;4981055;28;20491;-88
2022/06/06 02:51:09;;;;;;;0.30;0.20;;;15.60;99.90;;;;;;4981546;28;20465;-88
2022/06/06 02:53:36;;;;;;;0.30;0.20;;;15.70;99.90;;;;;;4980324;28;20465;-87
2022/06/06 02:56:04;;;;;;;0.30;0.20;;;15.70;99.90;;;;;;4979426;28;20474;-87
2022/06/06 02:58:31;;;;;;;0.30;0.20;;;15.70;99.90;;;;;;4983391;28;20533;-87
2022/06/06 03:01:02;;;;;;;0.30;0.20;;;15.70;99.90;;;;;;4981555;28;20474;-87
2022/06/06 03:03:30;;;;;;;0.30;0.20;;;15.70;99.90;;;;;;4975547;28;20475;-87
2022/06/06 03:06:07;;;;;;;0.30;0.20;;;15.70;99.90;;;;;;4974112;28;20540;-88
2022/06/06 03:08:51;;;;;;;0.30;0.20;;;15.80;99.90;;;;;;4980063;28;20488;-87
2022/06/06 03:11:33;;;;;;;0.30;0.20;;;15.70;99.90;;;;;;4980529;28;20472;-88
2022/06/06 03:14:14;;;;;;;0.40;0.30;;;15.60;99.90;;;;;;4978984;28;20960;-88
2022/06/06 03:23:06;;;;;;;0.30;0.20;;;15.50;99.90;;;;;;4977943;28;20497;-87
2022/06/06 03:25:43;;;;;;;0.30;0.20;;;15.40;99.90;;;;;;4982057;28;20934;-87
2022/06/06 03:28:21;;;;;;;0.30;0.20;;;15.40;99.90;;;;;;4981191;28;20471;-87
2022/06/06 03:31:03;;;;;;;0.30;0.20;;;15.40;99.90;;;;;;4979218;28;20544;-87
2022/06/06 03:33:40;;;;;;;0.30;0.20;;;15.40;99.90;;;;;;4977119;28;21108;-87
2022/06/06 03:36:12;;;;;;;0.30;0.20;;;15.40;99.90;;;;;;4979063;28;21176;-87
2022/06/06 03:38:46;;;;;;;0.30;0.20;;;15.40;99.90;;;;;;4976394;28;20543;-88
2022/06/06 03:41:22;;;;;;;0.30;0.20;;;15.40;99.90;;;;;;4990682;28;20460;-87
2022/06/06 03:43:55;;;;;;;0.30;0.20;;;15.30;99.90;;;;;;4998664;28;20463;-87
2022/06/06 03:46:33;;;;;;;0.30;0.17;;;15.40;99.90;;;;;;4985758;28;21021;-87
2022/06/06 03:49:16;;;;;;;0.30;0.20;;;15.40;99.90;;;;;;4986673;28;20579;-88
2022/06/06 03:51:52;;;;;;;0.30;0.20;;;15.40;99.90;;;;;;4976759;28;20510;-85
2022/06/06 03:54:30;;;;;;;0.30;0.20;;;15.40;99.90;;;;;;4979181;28;20449;-86
2022/06/06 03:57:08;;;;;;;0.30;0.20;;;15.50;99.90;;;;;;4980585;28;20493;-87
2022/06/06 03:59:37;;;;;;;0.30;0.20;;;15.40;99.90;;;;;;4976655;28;20457;-87
2022/06/06 04:02:06;;;;;;;0.30;0.20;;;15.50;99.90;;;;;;4981229;28;20461;-87
2022/06/06 04:04:34;;;;;;;0.30;0.20;;;15.50;99.90;;;;;;4981549;28;20527;-88
2022/06/06 04:07:03;;;;;;;0.30;0.30;;;15.50;99.90;;;;;;4977324;28;20457;-88
2022/06/06 04:09:31;;;;;;;0.30;0.20;;;15.60;99.90;;;;;;4977776;28;20563;-87
2022/06/06 04:12:09;;;;;;;0.30;0.20;;;15.60;99.90;;;;;;4977882;28;20516;-88
2022/06/06 04:14:45;;;;;;;0.30;0.20;;;15.70;99.90;;;;;;4979766;28;21047;-86
2022/06/06 04:17:32;;;;;;;0.30;0.20;;;15.70;99.90;;;;;;4978793;28;20526;-85
2022/06/06 04:20:07;;;;;;;0.30;0.20;;;15.70;99.90;;;;;;4978197;28;20497;-85
2022/06/06 04:22:48;;;;;;;0.30;0.17;;;15.80;99.90;;;;;;4977747;28;20470;-85
2022/06/06 04:25:27;;;;;;;0.30;0.20;;;15.80;99.90;;;;;;4975652;28;20473;-85
2022/06/06 04:28:03;;;;;;;0.30;0.20;;;15.90;99.90;;;;;;4981207;28;20461;-85
2022/06/06 04:30:41;;;;;;;0.30;0.10;;;16.00;99.90;;;;;;4976462;28;20501;-85
2022/06/06 04:33:18;;;;;;;0.30;0.20;;;15.90;99.90;;;;;;4978676;28;21071;-85
2022/06/06 04:36:01;;;;;;;0.30;0.20;;;16.00;99.90;;;;;;4976613;28;20470;-85
2022/06/06 04:38:36;;;;;;;0.30;0.20;;;16.10;99.90;;;;;;4977274;28;20473;-85
2022/06/06 04:41:12;;;;;;;0.30;0.20;;;16.00;99.90;;;;;;4974550;28;21000;-85
2022/06/06 04:43:46;;;;;;;0.30;0.20;;;16.10;99.90;;;;;;4977423;28;20473;-85
2022/06/06 04:46:19;;;;;;;0.30;0.20;;;16.10;99.90;;;;;;4979360;28;20472;-85
2022/06/06 04:48:48;;;;;;;0.30;0.20;;;16.10;99.90;;;;;;4978384;28;21209;-85
2022/06/06 04:51:19;;;;;;;0.80;0.50;;;16.20;99.90;;;;;;4980193;28;20486;-85
2022/06/06 04:53:49;;;;;;;0.30;0.20;;;16.20;99.90;;;;;;4980381;28;20471;-83
2022/06/06 04:56:18;;;;;;;0.30;0.20;;;16.30;99.90;;;;;;4978923;28;20467;-85
2022/06/06 04:58:50;;;;;;;0.30;0.20;;;16.30;99.90;;;;;;4977200;28;20468;-85
2022/06/06 05:01:17;;;;;;;0.30;0.20;;;16.40;99.90;;;;;;4975757;28;20932;-84
2022/06/06 05:03:45;;;;;;;0.30;0.20;;;16.40;99.90;;;;;;4971792;28;20460;-84
2022/06/06 05:06:50;;;;;;;0.30;0.20;;;16.50;99.90;;;;;;4979022;28;21144;-84
2022/06/06 05:09:45;;;;;;;0.30;0.20;;;16.60;99.90;;;;;;4968683;28;20854;-84
2022/06/06 05:12:21;;;;;;;0.30;0.20;;;16.70;99.90;;;;;;4972810;28;20992;-85
2022/06/06 05:15:18;;;;;;;0.30;0.20;;;16.80;99.90;;;;;;4968539;28;20983;-84
2022/06/06 05:18:05;;;;;;;0.30;0.20;;;16.90;99.90;;;;;;4975243;28;20464;-85
2022/06/06 05:20:53;;;;;;;0.30;0.20;;;16.90;99.90;;;;;;4980073;28;20488;-86
2022/06/06 05:24:03;;;;;;;0.30;0.20;;;17.00;99.90;;;;;;4974712;28;20523;-84
2022/06/06 05:26:49;;;;;;;0.30;0.20;;;17.20;99.90;;;;;;4967735;28;20491;-85
2022/06/06 05:29:38;;;;;;;0.30;0.20;;;17.30;99.90;;;;;;4970990;28;20533;-84
2022/06/06 05:32:21;;;;;;;0.30;0.20;;;17.40;99.90;;;;;;4970501;28;20949;-84
2022/06/06 05:34:56;;;;;;;0.30;0.20;;;17.50;99.90;;;;;;4974216;28;20460;-84
2022/06/06 05:37:37;;;;;;;0.90;0.60;;;17.50;99.90;;;;;;4972707;28;20463;-84
2022/06/06 05:40:18;;;;;;;0.30;0.20;;;17.70;99.90;;;;;;4973105;28;20472;-84
2022/06/06 05:43:10;;;;;;;0.30;0.20;;;17.70;99.90;;;;;;4974792;28;20538;-85
2022/06/06 05:45:45;;;;;;;0.30;0.20;;;17.60;99.90;;;;;;4977278;28;20532;-85
2022/06/06 05:48:28;;;;;;;0.30;0.20;;;17.70;99.90;;;;;;4973138;28;21180;-85
2022/06/06 05:51:10;;;;;;;0.30;0.20;;;17.60;99.90;;;;;;4971894;28;20500;-86
2022/06/06 05:53:54;;;;;;;0.30;0.20;;;17.80;99.90;;;;;;4967834;28;21643;-86
2022/06/06 05:56:48;;;;;;;0.30;0.20;;;18.00;99.90;;;;;;4969115;28;20482;-87
2022/06/06 05:59:41;;;;;;;0.30;0.20;;;17.90;99.90;;;;;;4968283;28;20982;-86
2022/06/06 06:02:25;;;;;;;0.50;0.47;;;18.00;99.90;;;;;;4968911;28;20469;-86
2022/06/06 06:05:11;;;;;;;0.30;0.20;;;17.90;99.90;;;;;;4967048;28;20521;-84
2022/06/06 06:07:44;;;;;;;0.30;0.20;;;17.90;99.90;;;;;;4965440;28;20475;-86
2022/06/06 06:10:16;;;;;;;0.30;0.20;;;18.00;99.90;;;;;;4970054;28;20497;-87
2022/06/06 06:13:15;;;;;;;0.30;0.20;;;18.20;99.90;;;;;;4975994;28;20803;-86
2022/06/06 06:15:44;;;;;;;0.30;0.20;;;18.30;99.90;;;;;;4969175;28;20470;-86
2022/06/06 06:18:17;;;;;;;0.30;0.20;;;18.30;99.90;;;;;;4971618;28;20872;-85
2022/06/06 06:20:51;;;;;;;0.30;0.20;;;18.40;99.90;;;;;;4975799;28;20570;-86
2022/06/06 06:23:22;;;;;;;0.30;0.20;;;18.40;99.90;;;;;;4977214;28;20467;-86
2022/06/06 06:25:51;;;;;;;0.40;0.30;;;18.40;99.90;;;;;;4976341;28;20578;-85
2022/06/06 06:28:18;;;;;;;0.30;0.20;;;18.40;99.90;;;;;;4970640;28;20456;-86
2022/06/06 06:31:05;;;;;;;0.30;0.20;;;18.70;99.90;;;;;;4976999;28;20491;-85
2022/06/06 06:33:49;;;;;;;0.30;0.20;;;19.00;99.90;;;;;;4973645;28;20471;-82
2022/06/06 06:36:42;;;;;;;0.30;0.20;;;18.80;99.90;;;;;;4973713;28;21084;-84
2022/06/06 06:39:21;;;;;;;0.30;0.20;;;19.10;99.90;;;;;;4984363;28;20466;-85
2022/06/06 06:42:00;;;;;;;0.53;0.53;;;19.30;99.90;;;;;;4978377;28;20868;-84
2022/06/06 06:44:31;;;;;;;0.30;0.20;;;19.30;99.90;;;;;;4974784;28;20493;-84
2022/06/06 06:47:04;;;;;;;0.30;0.20;;;19.40;99.90;;;;;;4969890;28;20476;-86
2022/06/06 06:49:41;;;;;;;0.30;0.20;;;19.50;99.90;;;;;;4972341;28;20991;-86
2022/06/06 06:52:25;;;;;;;0.40;0.30;;;19.50;99.90;;;;;;4970203;28;20468;-85
2022/06/06 06:55:03;;;;;;;0.30;0.20;;;19.40;99.90;;;;;;4974925;28;20475;-86
2022/06/06 06:57:48;;;;;;;0.30;0.20;;;19.50;99.90;;;;;;4982224;28;20579;-88
2022/06/06 07:00:18;;;;;;;0.30;0.20;;;19.50;99.90;;;;;;4982200;28;20482;-86
2022/06/06 07:09:08;;;;;;;0.40;0.20;;;20.00;99.90;;;;;;4979140;28;20461;-87
2022/06/06 07:11:56;;;;;;;0.30;0.20;;;20.10;99.90;;;;;;4982965;28;20497;-85
2022/06/06 07:14:49;;;;;;;0.30;0.20;;;20.20;99.90;;;;;;4976843;28;20530;-85
2022/06/06 07:17:18;;;;;;;0.30;0.20;;;20.30;99.90;;;;;;4980067;28;20443;-85
2022/06/06 07:19:49;;;;;;;0.30;0.20;;;20.70;99.90;;;;;;4981051;28;20882;-92
2022/06/06 07:22:19;;;;;;;0.30;0.27;;;20.70;99.90;;;;;;4978331;28;20472;-87
2022/06/06 07:24:54;;;;;;;0.30;0.20;;;20.70;99.90;;;;;;4979683;28;20462;-90
2022/06/06 07:27:21;;;;;;;0.30;0.20;;;20.80;99.90;;;;;;4977255;28;20474;-92
2022/06/06 07:29:48;;;;;;;0.30;0.20;;;20.90;99.90;;;;;;4976233;28;20479;-92
2022/06/06 07:32:37;;;;;;;0.30;0.20;;;21.30;99.90;;;;;;4976432;28;20478;-87
2022/06/06 07:35:12;;;;;;;0.40;0.27;;;21.80;99.90;;;;;;4977527;28;20482;-89
2022/06/06 07:37:57;;;;;;;0.30;0.20;;;22.00;99.90;;;;;;4979283;28;20467;-88
2022/06/06 07:40:39;;;;;;;0.30;0.20;;;21.70;99.90;;;;;;4975463;28;20463;-90
2022/06/06 07:43:25;;;;;;;0.30;0.20;;;21.40;99.90;;;;;;4976866;28;20475;-88
2022/06/06 07:45:59;;;;;;;0.30;0.20;;;21.20;99.90;;;;;;4978582;28;20470;-88
2022/06/06 07:48:51;;;;;;;0.40;0.27;;;21.60;99.90;;;;;;4974754;28;20517;-91
2022/06/06 07:51:27;;;;;;;0.30;0.20;;;21.90;99.90;;;;;;4978865;28;20577;-92
2022/06/06 07:54:00;;;;;;;0.30;0.20;;;21.60;99.90;;;;;;4981431;28;20477;-87
2022/06/06 07:56:37;;;;;;;0.30;0.20;;;21.70;99.90;;;;;;4979195;28;20489;-89
2022/06/06 07:59:16;;;;;;;0.30;0.20;;;22.00;99.90;;;;;;4977459;28;20953;-86
2022/06/06 08:01:54;;;;;;;0.30;0.20;;;22.20;99.90;;;;;;4977035;28;21176;-86
2022/06/06 08:04:26;;;;;;;0.50;0.30;;;22.50;99.90;;;;;;4980946;28;20520;-90
2022/06/06 08:07:05;;;;;;;0.40;0.20;;;22.70;99.90;;;;;;4976986;28;20540;-88
2022/06/06 08:10:03;;;;;;;0.53;0.30;;;23.00;99.40;;;;;;4975305;28;20468;-86
2022/06/06 08:12:46;;;;;;;0.30;0.20;;;22.90;98.70;;;;;;4976140;28;20460;-84
2022/06/06 08:15:23;;;;;;;0.30;0.20;;;22.50;98.80;;;;;;4976243;28;20468;-85
2022/06/06 08:18:15;;;;;;;0.40;0.20;;;21.90;99.90;;;;;;4980355;28;20463;-85
2022/06/06 08:20:51;;;;;;;0.30;0.20;;;22.20;99.90;;;;;;4976441;28;20802;-85
2022/06/06 08:23:20;;;;;;;0.30;0.20;;;22.50;99.90;;;;;;4980592;28;20459;-85
2022/06/06 08:25:49;;;;;;;0.33;0.20;;;22.50;98.30;;;;;;4981813;28;20975;-85
2022/06/06 08:28:18;;;;;;;0.33;0.20;;;22.70;99.20;;;;;;4979535;28;20472;-85
2022/06/06 08:30:46;;;;;;;0.40;0.30;;;22.60;97.10;;;;;;4980104;28;20607;-86
2022/06/06 08:33:13;;;;;;;0.40;0.20;;;22.60;99.90;;;;;;4974394;28;20556;-86
2022/06/06 08:35:51;;;;;;;0.40;0.20;;;22.90;99.90;;;;;;4975735;28;20485;-85
2022/06/06 08:38:38;;;;;;;0.40;0.30;;;22.90;99.30;;;;;;4971280;28;20566;-85
2022/06/06 08:41:26;;;;;;;0.40;0.20;;;22.70;97.50;;;;;;4975290;28;20478;-86
2022/06/06 08:44:02;;;;;;;0.40;0.20;;;23.20;97.70;;;;;;4979013;28;20532;-84
2022/06/06 08:46:44;;;;;;;0.40;0.20;;;23.40;97.40;;;;;;4971300;28;20491;-85
2022/06/06 08:52:16;;;;;;;0.40;0.20;;;24.00;97.60;;;;;;4977964;28;20483;-86
2022/06/06 08:55:24;;;;;;;0.40;0.20;;;23.90;95.70;;;;;;4973799;28;20464;-85
2022/06/06 08:58:11;;;;;;;0.40;0.20;;;23.40;96.80;;;;;;4955650;28;20483;-85
2022/06/06 09:00:49;;;;;;;0.40;0.30;;;23.40;96.80;;;;;;4972191;28;20496;-85
2022/06/06 09:03:53;;;;;;;0.40;0.20;;;23.50;96.70;;;;;;4981054;28;20451;-85
2022/06/06 09:07:03;;;;;;;0.40;0.20;;;23.10;98.60;;;;;;4977715;28;20504;-85
2022/06/06 09:10:04;;;;;;;0.40;0.20;;;23.00;96.60;;;;;;4977349;28;20455;-84
2022/06/06 09:13:08;;;;;;;0.40;0.20;;;22.60;96.90;;;;;;4977022;28;20484;-84
2022/06/06 09:16:18;;;;;;;0.40;0.30;;;23.00;97.10;;;;;;4972936;28;20876;-85
2022/06/06 09:19:21;;;;;;;0.40;0.20;;;23.60;98.70;;;;;;4973847;28;20448;-85
2022/06/06 09:22:09;;;;;;;0.40;0.20;;;23.80;96.20;;;;;;4974006;28;20494;-85
2022/06/06 09:25:15;;;;;;;0.40;0.20;;;24.30;96.60;;;;;;4978305;28;20809;-85
2022/06/06 09:28:24;;;;;;;0.50;0.30;;;24.60;96.00;;;;;;4969112;28;20472;-85
2022/06/06 09:31:43;;;;;;;0.40;0.30;;;24.70;95.00;;;;;;4976892;28;20490;-85
2022/06/06 09:34:34;;;;;;;0.40;0.40;;;24.50;95.30;;;;;;4973879;28;20470;-85
2022/06/06 09:37:06;;;;;;;0.40;0.20;;;24.70;94.80;;;;;;4984715;28;20491;-84
2022/06/06 09:39:40;;;;;;;0.40;0.20;;;24.80;96.30;;;;;;4985607;28;20519;-86
2022/06/06 09:42:19;;;;;;;0.40;0.30;;;24.80;93.40;;;;;;4980591;28;20475;-86
2022/06/06 09:45:24;;;;;;;0.40;0.20;;;24.80;94.10;;;;;;4983567;28;20472;-87
2022/06/06 09:48:29;;;;;;;0.40;0.20;;;24.60;92.00;;;;;;4982104;28;20463;-85
2022/06/06 09:51:29;;;;;;;0.40;0.27;;;24.80;93.80;;;;;;4977239;28;20501;-88
2022/06/06 10:01:11;;;;;;;0.40;0.20;;;22.60;96.50;;;;;;4970180;28;20447;-86
2022/06/06 10:04:24;;;;;;;0.40;0.30;;;22.90;98.40;;;;;;4975033;28;20475;-86
2022/06/06 10:07:33;;;;;;;0.40;0.20;;;23.00;96.60;;;;;;4976553;28;20628;-86
2022/06/06 10:10:36;;;;;;;0.40;0.20;;;23.30;96.30;;;;;;4974830;28;20558;-86
2022/06/06 10:13:17;;;;;;;0.87;0.40;;;24.50;95.50;;;;;;4948180;28;20459;-85
2022/06/06 10:15:58;;;;;;;0.40;0.20;;;24.40;95.00;;;;;;4974934;28;20974;-86
2022/06/06 10:18:52;;;;;;;0.40;0.30;;;24.80;95.50;;;;;;4973659;28;20472;-86
2022/06/06 10:21:59;;;;;;;0.50;0.30;;;24.40;95.10;;;;;;4972021;28;20463;-85
2022/06/06 10:24:59;;;;;;;0.40;0.20;;;24.20;93.30;;;;;;4979883;28;20468;-86
2022/06/06 10:27:44;;;;;;;0.40;0.20;;;24.80;93.20;;;;;;4982034;28;20949;-86
2022/06/06 10:30:17;;;;;;;0.40;0.20;;;25.10;91.20;;;;;;4975424;28;20448;-86
2022/06/06 10:33:29;;;;;;;0.40;0.20;;;25.50;91.40;;;;;;4979995;28;20487;-86
2022/06/06 10:36:13;;;;;;;0.40;0.20;;;25.60;93.00;;;;;;4980123;28;20529;-86
2022/06/06 10:39:16;;;;;;;0.40;0.30;;;26.00;93.70;;;;;;4977587;28;21038;-86
2022/06/06 10:42:16;;;;;;;0.40;0.20;;;26.40;92.00;;;;;;4978941;28;20463;-86
2022/06/06 10:45:16;;;;;;;0.40;0.27;;;26.60;88.40;;;;;;4971326;28;20451;-87
2022/06/06 10:48:14;;;;;;;0.40;0.20;;;26.60;87.20;;;;;;4980355;28;20470;-86
2022/06/06 10:54:22;;;;;;;0.40;0.20;;;26.70;90.20;;;;;;4985433;28;20557;-85
2022/06/06 10:57:39;;;;;;;0.40;0.20;;;26.20;86.90;;;;;;4976178;28;20483;-86
2022/06/06 11:00:14;;;;;;;0.40;0.30;;;25.80;92.40;;;;;;4992239;28;20467;-86
2022/06/06 11:03:31;;;;;;;0.40;0.20;;;25.40;90.10;;;;;;4977512;28;21151;-86
2022/06/06 11:06:26;;;;;;;0.40;0.20;;;24.90;91.20;;;;;;4981346;28;21040;-85
2022/06/06 11:09:26;;;;;;;0.40;0.20;;;24.40;91.30;;;;;;4973448;28;20459;-85
2022/06/06 11:12:28;;;;;;;0.40;0.20;;;24.30;91.00;;;;;;4979655;28;20582;-86
2022/06/06 11:15:00;;;;;;;0.40;0.30;;;24.30;93.10;;;;;;4990763;28;20471;-87
2022/06/06 11:18:07;;;;;;;0.40;0.20;;;24.30;93.10;;;;;;4982914;28;20486;-86
2022/06/06 11:21:05;;;;;;;0.40;0.20;;;24.00;92.10;;;;;;4980881;28;20967;-84
2022/06/06 11:23:38;;;;;;;0.40;0.20;;;23.60;92.60;;;;;;4973239;28;20475;-84
2022/06/06 11:26:27;;;;;;;0.40;0.20;;;23.30;95.00;;;;;;4967023;28;20445;-84
2022/06/06 11:29:23;;;;;;;0.40;0.27;;;23.80;94.20;;;;;;4966233;28;20893;-84
2022/06/06 11:32:11;;;;;;;0.40;0.30;;;24.20;92.60;;;;;;4975915;28;20495;-84
2022/06/06 11:35:14;;;;;;;0.40;0.20;;;24.40;92.50;;;;;;4976219;28;20467;-85
2022/06/06 11:38:23;;;;;;;0.40;0.20;;;24.60;92.20;;;;;;4981254;28;20467;-85
2022/06/06 11:41:24;;;;;;;0.40;0.30;;;25.20;91.10;;;;;;4971132;28;20499;-85
2022/06/06 11:44:24;;;;;;;0.40;0.20;;;25.20;90.20;;;;;;4965363;28;20463;-85
2022/06/06 11:47:32;;;;;;;0.40;0.30;;;24.80;90.40;;;;;;4974900;28;20557;-86
2022/06/06 11:50:28;;;;;;;0.40;0.20;;;24.60;90.20;;;;;;4975654;28;20468;-86
2022/06/06 11:53:26;;;;;;;0.40;0.20;;;25.10;91.10;;;;;;4974519;28;20586;-87
2022/06/06 11:56:16;;;;;;;0.40;0.30;;;25.00;91.30;;;;;;4973234;28;20468;-87
2022/06/06 11:59:28;;;;;;;0.40;0.20;;;25.10;90.30;;;;;;4976103;28;20520;-84
2022/06/06 12:02:29;;;;;;;0.40;0.20;;;25.20;90.10;;;;;;4983991;28;20979;-86
2022/06/06 12:05:30;;;;;;;0.40;0.30;;;25.30;90.20;;;;;;4978323;28;20472;-86
2022/06/06 12:08:35;;;;;;;0.40;0.20;;;25.40;89.10;;;;;;4975919;28;20555;-86
2022/06/06 12:11:41;;;;;;;0.40;0.20;;;25.80;92.10;;;;;;4979639;28;21000;-86
2022/06/06 12:14:50;;;;;;;0.40;0.30;;;26.00;84.90;;;;;;4956957;28;20829;-86
2022/06/06 12:17:33;;;;;;;0.40;0.20;;;25.80;83.10;;;;;;4968791;28;20449;-86
2022/06/06 12:20:18;;;;;;;0.80;0.40;;;26.10;90.40;;;;;;4979911;28;20843;-86
2022/06/06 12:23:04;;;;;;;0.40;0.20;;;26.10;88.00;;;;;;4967921;28;20452;-87
2022/06/06 12:25:54;;;;;;;0.50;0.30;;;26.30;89.10;;;;;;4979302;28;20508;-89
2022/06/06 12:29:01;;;;;;;0.40;0.30;;;26.20;84.80;;;;;;4972720;28;20464;-88
2022/06/06 12:31:42;;;;;;;0.40;0.20;;;26.10;91.20;;;;;;4990598;28;20600;-85
2022/06/06 12:34:17;;;;;;;0.40;0.30;;;26.40;86.40;;;;;;4990107;28;20466;-82
2022/06/06 12:36:53;;;;;;;0.40;0.20;;;26.10;85.10;;;;;;4984266;28;20461;-84
2022/06/06 12:39:34;;;;;;;1.27;0.30;;;26.00;88.00;;;;;;4984400;28;20559;-87
2022/06/06 12:42:11;;;;;;;0.40;0.30;;;26.20;81.10;;;;;;4971735;28;20463;-88
2022/06/06 12:45:03;;;;;;;0.40;0.20;;;26.40;81.90;;;;;;4973535;28;20448;-88
2022/06/06 12:47:54;;;;;;;0.40;0.20;;;26.40;85.90;;;;;;4980239;28;20462;-88
2022/06/06 12:50:33;;;;;;;0.40;0.30;;;26.40;87.80;;;;;;4975553;28;20460;-87
2022/06/06 12:53:33;;;;;;;0.40;0.27;;;26.40;81.70;;;;;;4981872;28;20498;-88
2022/06/06 12:56:19;;;;;;;0.40;0.23;;;26.00;82.90;;;;;;4957663;28;20906;-87
2022/06/06 12:58:59;;;;;;;0.40;0.20;;;26.20;82.50;;;;;;4983290;28;20482;-87
2022/06/06 13:01:41;;;;;;;0.40;0.20;;;26.10;80.80;;;;;;4978498;28;20998;-87
2022/06/06 13:04:26;;;;;;;0.40;0.20;;;26.20;81.90;;;;;;4971090;28;20544;-87
2022/06/06 13:07:05;;;;;;;0.40;0.30;;;26.30;81.00;;;;;;4974673;28;20881;-87
2022/06/06 13:09:52;;;;;;;0.50;0.43;;;26.10;84.50;;;;;;4975577;28;20529;-87
2022/06/06 13:12:43;;;;;;;0.40;0.23;;;26.60;90.10;;;;;;4973137;28;20612;-87
2022/06/06 13:15:19;;;;;;;0.40;0.20;;;26.20;85.00;;;;;;4977257;28;20564;-87
2022/06/06 13:18:01;;;;;;;0.40;0.20;;;25.30;82.40;;;;;;4978010;28;20516;-87
2022/06/06 13:20:40;;;;;;;0.50;0.40;;;25.20;85.60;;;;;;4979161;28;21030;-87
2022/06/06 13:23:35;;;;;;;0.50;0.40;;;25.70;86.40;;;;;;4976388;28;20483;-87
2022/06/06 13:26:19;;;;;;;0.40;0.20;;;26.30;80.60;;;;;;4977722;28;20476;-88
2022/06/06 13:28:50;;;;;;;0.40;0.30;;;26.30;77.30;;;;;;4978509;28;20856;-87
2022/06/06 13:31:37;;;;;;;0.40;0.20;;;26.30;75.80;;;;;;4975124;28;20460;-87
2022/06/06 13:34:27;;;;;;;0.40;0.20;;;26.50;73.50;;;;;;4977873;28;20443;-86
2022/06/06 13:37:14;;;;;;;0.40;0.20;;;26.60;74.20;;;;;;4975173;28;20479;-87
2022/06/06 13:40:03;;;;;;;0.40;0.30;;;26.60;77.60;;;;;;4973981;28;20555;-87
2022/06/06 13:43:13;;;;;;;0.50;0.40;;;26.70;80.80;;;;;;4975583;28;20464;-87
2022/06/06 13:45:47;;;;;;;0.40;0.30;;;26.60;83.70;;;;;;4897077;29;20499;-88
2022/06/06 13:48:37;;;;;;;0.40;0.20;;;26.70;76.50;;;;;;4964750;28;20468;-88
2022/06/06 13:51:18;;;;;;;0.40;0.20;;;26.40;77.30;;;;;;4972351;28;20547;-88
2022/06/06 13:53:59;;;;;;;0.40;0.20;;;26.40;78.90;;;;;;4978083;28;20475;-86
2022/06/06 13:56:50;;;;;;;0.40;0.20;;;26.50;78.20;;;;;;4980865;28;20570;-88
2022/06/06 14:00:01;;;;;;;0.40;0.20;;;26.20;75.70;;;;;;4975939;28;20452;-87
2022/06/06 14:02:40;;;;;;;0.50;0.30;;;26.60;79.60;;;;;;4896932;29;20474;-87
2022/06/06 14:05:40;;;;;;;0.50;0.30;;;26.50;74.10;;;;;;4969866;28;20474;-86
2022/06/06 14:08:11;;;;;;;0.40;0.20;;;26.60;75.60;;;;;;4975782;28;20482;-87
2022/06/06 14:10:52;;;;;;;0.50;0.40;;;26.40;77.30;;;;;;4975874;28;20496;-86
2022/06/06 14:13:34;;;;;;;0.40;0.20;;;26.50;74.30;;;;;;4977440;28;20496;-88
2022/06/06 14:16:02;;;;;;;0.50;0.30;;;26.60;76.30;;;;;;4979619;28;20869;-87
2022/06/06 14:18:33;;;;;;;0.40;0.20;;;26.60;74.40;;;;;;4982475;28;20464;-85
2022/06/06 14:21:03;;;;;;;0.50;0.30;;;26.90;77.20;;;;;;4984980;28;20471;-87
2022/06/06 14:23:32;;;;;;;0.47;0.33;;;26.80;75.20;;;;;;4979803;28;20506;-87
2022/06/06 14:26:03;;;;;;;0.40;0.20;;;27.00;78.50;;;;;;4982395;28;20467;-87
2022/06/06 14:28:36;;;;;;;0.40;0.20;;;26.50;76.90;;;;;;4973761;28;20500;-87